Jamestown, Canada
Current Conditions -  °F | °C
As of 5:00 PM on Monday 22 Dec 2014 (Local Time) from CYQX Reporting Station
Overcast Overcast  
Wind Chill: 25°   Ceiling: 1500
Heat Index: 25°   Visibility: 15mi
Dew Point: 19°   Wind: 3mph
Humidity: 80%   Direction: 30°NNE
Pressure: 30.42"   Gusts: NA
Location:  48.43°N, 53.8°W
Report Text: CYQX 222000Z 03003KT 330V040 15SM OVC015 M04/M07 A3042 RMK SC8 SLP311
Loading
Personal Weather Stations






























Interactive Weather Map New forecast layout! Learn more

10-Day Weather Forecast

Advertisements
Track Severe Weather on mobile